createdAt,value
2019-03-31T00:00:03.101Z,3.8
2019-03-31T00:01:08.798Z,3.8
2019-03-31T00:02:03.728Z,3.8
2019-03-31T00:03:02.883Z,3.8
2019-03-31T00:04:02.873Z,3.9
2019-03-31T00:05:02.890Z,3.9
2019-03-31T00:06:03.494Z,3.8
2019-03-31T00:07:02.988Z,3.8
2019-03-31T00:08:03.711Z,3.7
2019-03-31T00:09:03.793Z,3.8
2019-03-31T00:10:03.848Z,3.7
2019-03-31T00:11:02.916Z,3.6
2019-03-31T00:12:03.789Z,3.7
2019-03-31T00:13:03.952Z,3.6
2019-03-31T00:14:03.492Z,3.6
2019-03-31T00:15:03.762Z,3.6
2019-03-31T00:16:03.685Z,3.5
2019-03-31T00:17:03.539Z,3.4
2019-03-31T00:18:03.073Z,3.2
2019-03-31T00:19:03.465Z,3.1
2019-03-31T00:20:03.356Z,3.1
2019-03-31T00:21:03.161Z,3.2
2019-03-31T00:22:03.131Z,3.2
2019-03-31T00:23:03.367Z,3.1
2019-03-31T00:24:03.063Z,3.1
2019-03-31T00:25:03.198Z,3.1
2019-03-31T00:26:02.783Z,3.2
2019-03-31T00:27:03.087Z,3.2
2019-03-31T00:28:03.224Z,3.1
2019-03-31T00:29:02.963Z,3.2
2019-03-31T00:30:03.250Z,3.1
2019-03-31T00:31:03.253Z,3.1
2019-03-31T00:32:02.644Z,2.9
2019-03-31T00:33:02.762Z,2.9
2019-03-31T00:34:02.851Z,2.8
2019-03-31T00:35:03.017Z,2.8
2019-03-31T00:36:03.844Z,2.9
2019-03-31T00:37:02.628Z,2.9
2019-03-31T00:38:02.720Z,2.9
2019-03-31T00:39:03.713Z,3.1
2019-03-31T00:40:03.696Z,3.1
2019-03-31T00:41:03.538Z,3.1
2019-03-31T00:42:03.766Z,3.1
2019-03-31T00:43:03.484Z,3.1
2019-03-31T00:44:03.545Z,3.2
2019-03-31T00:45:03.429Z,3.3
2019-03-31T00:46:03.323Z,3.3
2019-03-31T00:47:03.298Z,3.3
2019-03-31T00:48:03.317Z,3.3
2019-03-31T00:49:03.385Z,3.3
2019-03-31T00:50:03.023Z,3.3
2019-03-31T00:51:03.172Z,3.3
2019-03-31T00:52:03.147Z,3.3
2019-03-31T00:53:03.102Z,3.3
2019-03-31T00:54:03.083Z,3.3
2019-03-31T00:55:03.381Z,3.3
2019-03-31T00:56:03.028Z,3.3
2019-03-31T00:57:02.987Z,3.3
2019-03-31T00:58:03.585Z,3.3
2019-03-31T00:59:02.908Z,3.3
2019-03-31T01:00:03.295Z,3.3
2019-03-31T01:01:02.787Z,3.3
2019-03-31T01:02:03.121Z,3.3
2019-03-31T01:03:03.049Z,3.2
2019-03-31T01:04:03.265Z,3.3
2019-03-31T01:05:03.008Z,3.3
2019-03-31T01:06:03.032Z,3.1
2019-03-31T01:07:03.089Z,3.1
2019-03-31T01:08:03.000Z,3.1
2019-03-31T01:09:02.899Z,3.1
2019-03-31T01:10:03.111Z,3.1
2019-03-31T01:11:03.679Z,3.1
2019-03-31T01:12:02.873Z,3.1
2019-03-31T01:13:02.871Z,3.1
2019-03-31T01:14:03.605Z,3.1
2019-03-31T01:15:03.703Z,3.1
2019-03-31T01:16:03.069Z,3.2
2019-03-31T01:17:03.789Z,3.2
2019-03-31T01:18:03.690Z,3.1
2019-03-31T01:19:03.571Z,3.1
2019-03-31T01:20:03.489Z,3.1
2019-03-31T01:21:03.223Z,3
2019-03-31T01:22:02.940Z,3
2019-03-31T01:23:03.376Z,3.1
2019-03-31T01:24:03.119Z,3.1
2019-03-31T01:25:03.355Z,3.1
2019-03-31T01:26:03.417Z,3
2019-03-31T01:27:03.178Z,3
2019-03-31T01:28:03.121Z,3
2019-03-31T01:29:03.162Z,3.1
2019-03-31T01:30:03.597Z,3
2019-03-31T01:31:03.127Z,2.8
2019-03-31T01:32:02.822Z,2.6
2019-03-31T01:33:03.212Z,2.6
2019-03-31T01:34:02.836Z,2.5
2019-03-31T01:35:03.164Z,2.6
2019-03-31T01:36:03.009Z,2.6
2019-03-31T01:37:03.002Z,2.7
2019-03-31T01:38:02.620Z,2.7
2019-03-31T01:39:03.094Z,2.6
2019-03-31T01:40:02.727Z,2.6
2019-03-31T01:41:03.096Z,2.6
2019-03-31T01:42:03.770Z,2.5
2019-03-31T01:43:02.779Z,2.5
2019-03-31T01:44:03.765Z,2.5
2019-03-31T01:45:03.488Z,2.3
2019-03-31T01:46:03.624Z,2.3
2019-03-31T01:47:03.668Z,2.3
2019-03-31T01:48:03.672Z,2.2
2019-03-31T01:49:03.319Z,2.1
2019-03-31T01:50:03.577Z,2.1
2019-03-31T01:51:03.495Z,2.1
2019-03-31T01:52:03.422Z,2.1
2019-03-31T01:53:03.348Z,2.1
2019-03-31T01:54:03.503Z,2.2
2019-03-31T01:55:03.586Z,2.1
2019-03-31T01:56:02.915Z,2.1
2019-03-31T01:57:03.272Z,2.2
2019-03-31T01:58:03.081Z,2
2019-03-31T01:59:03.313Z,1.9
2019-03-31T02:00:03.322Z,1.9
2019-03-31T02:01:03.352Z,1.9
2019-03-31T02:02:05.042Z,0
2019-03-31T02:03:03.684Z,1.9
2019-03-31T02:04:03.087Z,1.9
2019-03-31T02:05:03.058Z,1.8
2019-03-31T02:06:03.052Z,1.8
2019-03-31T02:07:02.811Z,1.8
2019-03-31T02:08:03.003Z,1.9
2019-03-31T02:09:03.639Z,1.9
2019-03-31T02:10:02.970Z,1.9
2019-03-31T02:11:02.897Z,1.9
2019-03-31T02:12:02.664Z,1.9
2019-03-31T02:13:04.167Z,1.8
2019-03-31T02:14:03.002Z,1.8
2019-03-31T02:15:02.894Z,1.8
2019-03-31T02:16:02.933Z,1.9
2019-03-31T02:17:03.659Z,1.9
2019-03-31T02:18:03.513Z,2
2019-03-31T02:19:03.614Z,1.9
2019-03-31T02:20:03.536Z,2
2019-03-31T02:21:03.628Z,2
2019-03-31T02:22:03.628Z,1.9
2019-03-31T02:23:03.722Z,2
2019-03-31T02:24:03.549Z,2
2019-03-31T02:25:03.638Z,2
2019-03-31T02:26:03.538Z,2.1
2019-03-31T02:27:03.330Z,2.1
2019-03-31T02:28:03.372Z,2.1
2019-03-31T02:29:03.362Z,2.1
2019-03-31T02:30:03.532Z,2.1
2019-03-31T02:31:03.397Z,2.1
2019-03-31T02:32:03.229Z,2.1
2019-03-31T02:33:03.076Z,2.1
2019-03-31T02:34:03.270Z,2
2019-03-31T02:35:03.203Z,2.1
2019-03-31T02:36:03.057Z,2.1
2019-03-31T02:37:02.936Z,2.1
2019-03-31T02:38:02.925Z,2
2019-03-31T02:39:02.874Z,2
2019-03-31T02:40:02.940Z,2
2019-03-31T02:41:03.642Z,2.1
2019-03-31T02:42:02.875Z,2
2019-03-31T02:43:03.673Z,2.1
2019-03-31T02:44:03.425Z,2.1
2019-03-31T02:45:04.133Z,2.1
2019-03-31T02:46:03.858Z,2.1
2019-03-31T02:47:03.672Z,2.1
2019-03-31T02:48:03.207Z,2
2019-03-31T02:49:03.618Z,2
2019-03-31T02:50:03.574Z,2.1
2019-03-31T02:51:03.479Z,2.1
2019-03-31T02:52:03.353Z,2.1
2019-03-31T02:53:03.447Z,2.1
2019-03-31T02:54:03.173Z,2.1
2019-03-31T02:55:03.256Z,2.1
2019-03-31T02:56:03.267Z,2.2
2019-03-31T02:57:02.865Z,2.2
2019-03-31T02:58:03.094Z,2.3
2019-03-31T02:59:02.726Z,2.3
2019-03-31T03:00:03.376Z,2.3
2019-03-31T03:01:03.086Z,2.3
2019-03-31T03:02:03.006Z,2.2
2019-03-31T03:03:03.018Z,2.2
2019-03-31T03:04:02.718Z,2.2
2019-03-31T03:05:20.563Z,2.2
2019-03-31T03:06:02.866Z,2.3
2019-03-31T03:07:02.836Z,2.3
2019-03-31T03:08:03.606Z,2.3
2019-03-31T03:09:02.863Z,2.2
2019-03-31T03:10:03.537Z,1.9
2019-03-31T03:11:03.573Z,1.8
2019-03-31T03:12:03.684Z,1.9
2019-03-31T03:13:03.730Z,1.8
2019-03-31T03:14:03.499Z,1.8
2019-03-31T03:15:03.536Z,1.8
2019-03-31T03:16:03.279Z,1.8
2019-03-31T03:17:03.455Z,1.8
2019-03-31T03:18:03.316Z,1.8
2019-03-31T03:19:03.175Z,1.6
2019-03-31T03:20:03.408Z,1.5
2019-03-31T03:21:03.403Z,1.4
2019-03-31T03:22:03.483Z,1.4
2019-03-31T03:23:03.005Z,1.4
2019-03-31T03:24:03.258Z,1.3
2019-03-31T03:25:02.971Z,1.3
2019-03-31T03:26:03.386Z,1.3
2019-03-31T03:27:03.032Z,1.3
2019-03-31T03:28:03.126Z,1.3
2019-03-31T03:29:02.951Z,1.3
2019-03-31T03:30:03.093Z,1.3
2019-03-31T03:31:04.276Z,1.3
2019-03-31T03:32:03.798Z,1.4
2019-03-31T03:33:19.587Z,1.4
2019-03-31T03:34:02.969Z,1.4
2019-03-31T03:35:02.803Z,1.4
2019-03-31T03:36:03.615Z,1.4
2019-03-31T03:37:03.554Z,1.4
2019-03-31T03:38:03.595Z,1.5
2019-03-31T03:39:03.702Z,1.6
2019-03-31T03:40:03.619Z,1.6
2019-03-31T03:41:03.856Z,1.5
2019-03-31T03:42:03.511Z,1.5
2019-03-31T03:43:03.520Z,1.4
2019-03-31T03:44:03.387Z,1.4
2019-03-31T03:45:03.605Z,1.3
2019-03-31T03:46:03.886Z,1.3
2019-03-31T03:47:03.421Z,1.3
2019-03-31T03:48:03.331Z,1.3
2019-03-31T03:49:03.407Z,1.3
2019-03-31T03:50:03.428Z,1.1
2019-03-31T03:51:03.166Z,1.1
2019-03-31T03:52:03.170Z,1
2019-03-31T03:53:03.251Z,1.1
2019-03-31T03:54:03.214Z,1.1
2019-03-31T03:55:03.324Z,1.2
2019-03-31T03:56:02.890Z,1.1
2019-03-31T03:57:03.248Z,1.2
2019-03-31T03:58:03.209Z,1.2
2019-03-31T03:59:02.997Z,1.1
2019-03-31T04:00:02.734Z,1.1
2019-03-31T04:01:03.063Z,1.1
2019-03-31T04:02:03.093Z,1.2
2019-03-31T04:03:04.070Z,1.1
2019-03-31T04:04:02.869Z,1.1
2019-03-31T04:05:02.899Z,1.1
2019-03-31T04:06:02.838Z,1.1
2019-03-31T04:07:03.556Z,1.1
2019-03-31T04:08:02.923Z,1.1
2019-03-31T04:09:02.801Z,1.1
2019-03-31T04:10:02.818Z,1
2019-03-31T04:11:03.755Z,1
2019-03-31T04:12:03.396Z,1
2019-03-31T04:13:03.540Z,1.1
2019-03-31T04:14:03.602Z,1.1
2019-03-31T04:15:03.681Z,1.1
2019-03-31T04:16:03.342Z,1
2019-03-31T04:17:03.549Z,1
2019-03-31T04:18:03.350Z,1
2019-03-31T04:19:03.827Z,1
2019-03-31T04:20:03.365Z,0.9
2019-03-31T04:21:03.463Z,0.9
2019-03-31T04:22:03.421Z,0.9
2019-03-31T04:23:03.229Z,1
2019-03-31T04:24:03.016Z,1.1
2019-03-31T04:25:03.220Z,1.1
2019-03-31T04:26:03.013Z,1
2019-03-31T04:27:02.791Z,1
2019-03-31T04:28:02.901Z,0.9
2019-03-31T04:29:03.111Z,0.9
2019-03-31T04:30:03.045Z,0.9
2019-03-31T04:31:03.734Z,1
2019-03-31T04:32:03.081Z,0.9
2019-03-31T04:33:02.906Z,0.9
2019-03-31T04:34:03.126Z,1
2019-03-31T04:35:02.963Z,0.9
2019-03-31T04:36:02.837Z,1
2019-03-31T04:37:02.728Z,1
2019-03-31T04:38:03.775Z,1
2019-03-31T04:39:03.581Z,0.9
2019-03-31T04:40:03.503Z,0.9
2019-03-31T04:41:02.769Z,0.9
2019-03-31T04:42:03.859Z,1.1
2019-03-31T04:43:03.761Z,1.1
2019-03-31T04:44:03.444Z,1.1
2019-03-31T04:45:03.702Z,1.1
2019-03-31T04:46:03.362Z,1
2019-03-31T04:47:03.466Z,0.9
2019-03-31T04:48:03.384Z,0.9
2019-03-31T04:49:03.173Z,1
2019-03-31T04:50:03.283Z,0.9
2019-03-31T04:51:03.057Z,0.9
2019-03-31T04:52:03.200Z,0.9
2019-03-31T04:53:03.303Z,0.9
2019-03-31T04:54:03.294Z,0.9
2019-03-31T04:55:02.869Z,1.1
2019-03-31T04:56:03.155Z,1.1
2019-03-31T04:57:04.872Z,1.1
2019-03-31T04:58:02.877Z,1.1
2019-03-31T04:59:02.936Z,1
2019-03-31T05:00:03.098Z,1.1
2019-03-31T05:01:02.791Z,1.1
2019-03-31T05:02:03.689Z,1.1
2019-03-31T05:03:02.863Z,1.1
2019-03-31T05:04:05.657Z,1.1
2019-03-31T05:05:03.863Z,1.1
2019-03-31T05:06:03.653Z,1.1
2019-03-31T05:07:03.822Z,1.1
2019-03-31T05:08:03.511Z,1.2
2019-03-31T05:09:03.744Z,1.3
2019-03-31T05:10:03.387Z,1.3
2019-03-31T05:11:02.740Z,1.3
2019-03-31T05:12:03.444Z,1.3
2019-03-31T05:13:03.372Z,1.3
2019-03-31T05:14:03.570Z,1.3
2019-03-31T05:15:03.220Z,1.4
2019-03-31T05:16:03.328Z,1.3
2019-03-31T05:17:03.337Z,1.4
2019-03-31T05:18:04.749Z,1.4
2019-03-31T05:19:03.046Z,1.4
2019-03-31T05:20:03.381Z,1.4
2019-03-31T05:21:02.999Z,1.4
2019-03-31T05:22:02.985Z,1.5
2019-03-31T05:23:02.696Z,1.6
2019-03-31T05:24:03.262Z,1.6
2019-03-31T05:25:03.262Z,1.6
2019-03-31T05:26:03.061Z,1.6
2019-03-31T05:27:02.955Z,1.5
2019-03-31T05:28:02.919Z,1.5
2019-03-31T05:29:02.842Z,1.5
2019-03-31T05:30:03.906Z,1.5
2019-03-31T05:31:02.931Z,1.6
2019-03-31T05:32:03.652Z,1.6
2019-03-31T05:33:02.889Z,1.5
2019-03-31T05:34:19.789Z,1.3
2019-03-31T05:35:02.885Z,1.3
2019-03-31T05:36:03.974Z,1.3
2019-03-31T05:37:03.636Z,1.3
2019-03-31T05:38:03.609Z,1.4
2019-03-31T05:39:03.667Z,1.4
2019-03-31T05:40:03.552Z,1.3
2019-03-31T05:41:03.165Z,1.4
2019-03-31T05:42:03.472Z,1.4
2019-03-31T05:43:03.350Z,1.4
2019-03-31T05:44:06.300Z,1.4
2019-03-31T05:45:03.414Z,1.4
2019-03-31T05:46:03.527Z,1.4
2019-03-31T05:47:03.201Z,1.5
2019-03-31T05:48:03.143Z,1.6
2019-03-31T05:49:03.477Z,1.8
2019-03-31T05:50:02.987Z,1.9
2019-03-31T05:51:03.079Z,2.1
2019-03-31T05:52:03.041Z,2.2
2019-03-31T05:53:02.962Z,2.3
2019-03-31T05:54:03.549Z,2.4
2019-03-31T05:55:03.175Z,2.4
2019-03-31T05:56:02.835Z,2.6
2019-03-31T05:57:03.721Z,2.6
2019-03-31T05:58:03.720Z,2.8
2019-03-31T05:59:03.544Z,2.8
2019-03-31T06:00:03.376Z,3.4
2019-03-31T06:01:03.448Z,4.1
2019-03-31T06:02:03.746Z,4.3
2019-03-31T06:03:03.590Z,3.9
2019-03-31T06:04:03.271Z,3.6
2019-03-31T06:05:03.719Z,3.5
2019-03-31T06:06:03.612Z,3.4
2019-03-31T06:07:03.262Z,3.4
2019-03-31T06:08:03.494Z,3.4
2019-03-31T06:09:03.053Z,3.4
2019-03-31T06:10:03.323Z,3.5
2019-03-31T06:11:03.088Z,3.4
2019-03-31T06:12:03.041Z,3.4
2019-03-31T06:13:03.116Z,3.5
2019-03-31T06:14:03.177Z,3.7
2019-03-31T06:15:03.075Z,3.8
2019-03-31T06:16:02.963Z,3.9
2019-03-31T06:17:02.881Z,4
2019-03-31T06:18:03.815Z,4.1
2019-03-31T06:19:03.782Z,4.1
2019-03-31T06:20:03.852Z,4.1
2019-03-31T06:21:03.566Z,4.3
2019-03-31T06:22:03.710Z,4.3
2019-03-31T06:23:03.679Z,4.3
2019-03-31T06:24:03.467Z,4.4
2019-03-31T06:25:03.594Z,4.4
2019-03-31T06:26:03.625Z,4.5
2019-03-31T06:27:03.323Z,4.6
2019-03-31T06:28:03.405Z,4.7
2019-03-31T06:29:03.410Z,4.8
2019-03-31T06:30:03.560Z,4.8
2019-03-31T06:31:03.151Z,5
2019-03-31T06:32:03.542Z,5
2019-03-31T06:33:03.188Z,5.1
2019-03-31T06:34:03.253Z,5.1
2019-03-31T06:35:03.350Z,5.2
2019-03-31T06:36:03.106Z,5.3
2019-03-31T06:37:02.992Z,5.3
2019-03-31T06:38:02.913Z,5.4
2019-03-31T06:39:03.071Z,5.5
2019-03-31T06:40:03.826Z,5.6
2019-03-31T06:41:03.754Z,5.7
2019-03-31T06:42:02.879Z,5.7
2019-03-31T06:43:02.813Z,5.8
2019-03-31T06:44:02.790Z,5.8
2019-03-31T06:45:03.813Z,5.9
2019-03-31T06:46:02.772Z,5.9
2019-03-31T06:47:03.316Z,6
2019-03-31T06:48:03.381Z,6.1
2019-03-31T06:49:03.467Z,6.2
2019-03-31T06:50:03.752Z,6.2
2019-03-31T06:51:03.213Z,6.2
2019-03-31T06:52:03.125Z,6.4
2019-03-31T06:53:03.258Z,6.4
2019-03-31T06:54:03.241Z,6.4
2019-03-31T06:55:03.261Z,6.5
2019-03-31T06:56:03.366Z,6.6
2019-03-31T06:57:02.782Z,6.6
2019-03-31T06:58:02.885Z,6.8
2019-03-31T06:59:03.063Z,6.8
2019-03-31T07:00:03.302Z,6.8
2019-03-31T07:01:03.052Z,6.8
2019-03-31T07:02:03.718Z,6.9
2019-03-31T07:03:02.937Z,6.9
2019-03-31T07:04:02.889Z,6.9
2019-03-31T07:05:03.604Z,7.1
2019-03-31T07:06:03.477Z,7.1
2019-03-31T07:07:03.589Z,7.1
2019-03-31T07:08:03.523Z,7.3
2019-03-31T07:09:03.382Z,7.4
2019-03-31T07:10:03.649Z,7.4
2019-03-31T07:11:03.559Z,7.5
2019-03-31T07:12:03.196Z,7.6
2019-03-31T07:13:03.631Z,7.6
2019-03-31T07:14:03.566Z,7.7
2019-03-31T07:15:03.541Z,7.8
2019-03-31T07:16:03.461Z,7.8
2019-03-31T07:17:03.438Z,7.9
2019-03-31T07:18:03.163Z,7.9
2019-03-31T07:19:02.982Z,7.8
2019-03-31T07:20:03.016Z,7.8
2019-03-31T07:21:03.216Z,7.9
2019-03-31T07:22:03.188Z,8.1
2019-03-31T07:23:03.031Z,8.3
2019-03-31T07:24:03.134Z,8.3
2019-03-31T07:25:03.136Z,8.3
2019-03-31T07:26:02.919Z,8.4
2019-03-31T07:27:02.731Z,8.4
2019-03-31T07:28:02.800Z,8.6
2019-03-31T07:29:03.576Z,8.7
2019-03-31T07:30:07.393Z,8.7
2019-03-31T07:31:03.538Z,8.6
2019-03-31T07:32:03.909Z,8.6
2019-03-31T07:33:03.732Z,8.8
2019-03-31T07:34:03.780Z,8.8
2019-03-31T07:35:19.158Z,8.9
2019-03-31T07:36:03.530Z,9.1
2019-03-31T07:37:03.580Z,9.1
2019-03-31T07:38:03.274Z,9.2
2019-03-31T07:39:03.642Z,9.3
2019-03-31T07:40:03.646Z,9.4
2019-03-31T07:41:13.794Z,9.5
2019-03-31T07:42:03.645Z,9.6
2019-03-31T07:43:03.604Z,9.6
2019-03-31T07:44:03.322Z,9.6
2019-03-31T07:45:03.231Z,9.6
2019-03-31T07:46:03.150Z,9.6
2019-03-31T07:47:02.833Z,9.6
2019-03-31T07:48:03.255Z,9.6
2019-03-31T07:49:02.842Z,9.9
2019-03-31T07:50:03.521Z,9.9
2019-03-31T07:51:02.701Z,10
2019-03-31T07:52:03.299Z,10.1
2019-03-31T07:53:02.855Z,10.3
2019-03-31T07:54:02.999Z,10.3
2019-03-31T07:55:03.022Z,10.3
2019-03-31T07:56:02.933Z,10.4
2019-03-31T07:57:02.950Z,10.5
2019-03-31T07:58:03.682Z,10.6
2019-03-31T07:59:03.072Z,10.6
2019-03-31T08:00:03.651Z,10.8
2019-03-31T08:01:02.850Z,10.8
2019-03-31T08:02:03.428Z,10.9
2019-03-31T08:03:02.982Z,10.9
2019-03-31T08:04:03.360Z,11.1
2019-03-31T08:05:03.764Z,11.2
2019-03-31T08:06:03.465Z,11.1
2019-03-31T08:07:03.184Z,11.2
2019-03-31T08:08:03.304Z,11.4
2019-03-31T08:09:03.445Z,11.4
2019-03-31T08:10:03.468Z,11.6
2019-03-31T08:11:02.965Z,11.7
2019-03-31T08:12:03.134Z,11.8
2019-03-31T08:13:03.096Z,12.1
2019-03-31T08:14:02.911Z,12
2019-03-31T08:15:03.172Z,11.9
2019-03-31T08:16:02.610Z,11.7
2019-03-31T08:17:02.897Z,11.9
2019-03-31T08:18:03.582Z,12.2
2019-03-31T08:19:02.892Z,12.1
2019-03-31T08:20:02.819Z,12.3
2019-03-31T08:21:03.770Z,12.6
2019-03-31T08:22:03.445Z,12.6
2019-03-31T08:23:03.686Z,12.6
2019-03-31T08:24:07.025Z,12.7
2019-03-31T08:25:03.639Z,12.8
2019-03-31T08:26:03.388Z,12.9
2019-03-31T08:27:05.852Z,13.1
2019-03-31T08:28:02.997Z,13.1
2019-03-31T08:29:03.598Z,13.2
2019-03-31T08:30:03.520Z,13.2
2019-03-31T08:31:02.939Z,13.4
2019-03-31T08:32:03.297Z,13.3
2019-03-31T08:33:03.289Z,13.4
2019-03-31T08:34:03.304Z,13.6
2019-03-31T08:35:03.155Z,13.9
2019-03-31T08:36:03.410Z,13.9
2019-03-31T08:37:02.941Z,13.9
2019-03-31T08:38:03.215Z,13.8
2019-03-31T08:39:02.892Z,13.7
2019-03-31T08:40:03.160Z,13.6
2019-03-31T08:41:03.707Z,13.6
2019-03-31T08:42:03.672Z,13.9
2019-03-31T08:43:02.794Z,13.9
2019-03-31T08:44:03.730Z,13.9
2019-03-31T08:45:02.738Z,14.1
2019-03-31T08:46:03.703Z,14.1
2019-03-31T08:47:03.684Z,14.3
2019-03-31T08:48:03.555Z,14.4
2019-03-31T08:49:03.230Z,14.4
2019-03-31T08:50:03.580Z,14.4
2019-03-31T08:51:03.449Z,14.4
2019-03-31T08:52:03.198Z,14.4
2019-03-31T08:53:03.259Z,14.6
2019-03-31T08:54:03.405Z,14.8
2019-03-31T08:55:03.351Z,14.8
2019-03-31T08:56:03.266Z,14.9
2019-03-31T08:57:03.264Z,15.2
2019-03-31T08:58:03.117Z,15.3
2019-03-31T08:59:03.034Z,15.1
2019-03-31T09:00:02.890Z,15.2
2019-03-31T09:01:02.979Z,14.6
2019-03-31T09:02:03.816Z,14.4
2019-03-31T09:03:02.891Z,14.5
2019-03-31T09:04:02.694Z,14.6
2019-03-31T09:05:03.825Z,14.6
2019-03-31T09:06:03.733Z,15
2019-03-31T09:07:03.707Z,15.2
2019-03-31T09:08:03.737Z,15.4
2019-03-31T09:09:03.618Z,15.4
2019-03-31T09:10:03.308Z,15.4
2019-03-31T09:11:03.453Z,15.6
2019-03-31T09:12:03.392Z,15.4
2019-03-31T09:13:03.364Z,15.7
2019-03-31T09:14:03.363Z,15.4
2019-03-31T09:15:03.614Z,15.8
2019-03-31T09:16:03.330Z,15.5
2019-03-31T09:17:03.302Z,15.4
2019-03-31T09:18:03.285Z,15.1
2019-03-31T09:19:03.277Z,15.1
2019-03-31T09:20:03.411Z,14.8
2019-03-31T09:21:03.287Z,14.9
2019-03-31T09:22:03.295Z,15
2019-03-31T09:23:02.826Z,15.4
2019-03-31T09:24:03.011Z,15
2019-03-31T09:25:02.886Z,15.2
2019-03-31T09:26:03.018Z,15.5
2019-03-31T09:27:02.893Z,15.5
2019-03-31T09:28:02.743Z,15.1
2019-03-31T09:29:02.868Z,15.5
2019-03-31T09:30:03.375Z,15.8
2019-03-31T09:31:02.702Z,15.8
2019-03-31T09:32:03.640Z,15.9
2019-03-31T09:33:03.475Z,16.1
2019-03-31T09:34:03.574Z,16.4
2019-03-31T09:35:03.560Z,16.7
2019-03-31T09:36:17.043Z,16.9
2019-03-31T09:37:03.332Z,16.6
2019-03-31T09:38:03.258Z,16.6
2019-03-31T09:39:03.328Z,16.8
2019-03-31T09:40:03.079Z,17
2019-03-31T09:41:03.400Z,16.8
2019-03-31T09:42:03.086Z,16.9
2019-03-31T09:43:03.143Z,17
2019-03-31T09:44:03.329Z,16.8
2019-03-31T09:45:03.559Z,17.1
2019-03-31T09:46:03.166Z,16.7
2019-03-31T09:47:03.300Z,16.8
2019-03-31T09:48:03.175Z,17.1
2019-03-31T09:49:03.238Z,17.6
2019-03-31T09:50:03.350Z,17.8
2019-03-31T09:51:02.992Z,17.4
2019-03-31T09:52:02.929Z,17.1
2019-03-31T09:53:03.002Z,17.1
2019-03-31T09:54:02.814Z,17.4
2019-03-31T09:55:02.866Z,17.4
2019-03-31T09:56:02.797Z,16.9
2019-03-31T09:57:03.142Z,16.8
2019-03-31T09:58:02.904Z,16.5
2019-03-31T09:59:02.763Z,16.7
2019-03-31T10:00:03.245Z,16.8
2019-03-31T10:01:02.788Z,16.8
2019-03-31T10:02:03.232Z,16.8
2019-03-31T10:03:02.982Z,16.9
2019-03-31T10:04:02.847Z,16.8
2019-03-31T10:05:03.288Z,17.1
2019-03-31T10:06:11.442Z,17.4
2019-03-31T10:07:02.875Z,17.6
2019-03-31T10:08:02.668Z,17.7
2019-03-31T10:09:03.080Z,17.8
2019-03-31T10:10:03.603Z,18.1
2019-03-31T10:11:03.693Z,18.3
2019-03-31T10:12:03.388Z,18.3
2019-03-31T10:13:03.761Z,18.1
2019-03-31T10:14:03.418Z,18.2
2019-03-31T10:15:03.619Z,17.8
2019-03-31T10:16:03.693Z,17.6
2019-03-31T10:17:03.193Z,17.6
2019-03-31T10:18:03.324Z,17.8
2019-03-31T10:19:03.166Z,17.6
2019-03-31T10:20:03.639Z,17.2
2019-03-31T10:21:03.228Z,17.6
2019-03-31T10:22:03.375Z,18.3
2019-03-31T10:23:03.224Z,18.6
2019-03-31T10:24:02.988Z,18.4
2019-03-31T10:25:02.865Z,18.4
2019-03-31T10:26:03.012Z,17.9
2019-03-31T10:27:03.119Z,17.7
2019-03-31T10:28:03.002Z,18.2
2019-03-31T10:29:02.959Z,17.9
2019-03-31T10:30:03.492Z,18.5
2019-03-31T10:31:03.119Z,18.8
2019-03-31T10:32:03.084Z,18.3
2019-03-31T10:33:02.873Z,18.4
2019-03-31T10:34:02.819Z,18.3
2019-03-31T10:35:02.745Z,18.8
2019-03-31T10:36:02.852Z,18.6
2019-03-31T10:37:02.836Z,18.3
2019-03-31T10:38:03.583Z,17.9
2019-03-31T10:39:02.829Z,17.8
2019-03-31T10:40:03.723Z,17.7
2019-03-31T10:41:03.693Z,18
2019-03-31T10:42:03.559Z,18.4
2019-03-31T10:43:03.352Z,18.8
2019-03-31T10:44:04.126Z,19.3
2019-03-31T10:45:03.481Z,19.4
2019-03-31T10:46:03.390Z,19.6
2019-03-31T10:47:03.278Z,19.5
2019-03-31T10:48:03.337Z,19.6
2019-03-31T10:49:03.091Z,19.8
2019-03-31T10:50:03.133Z,19.8
2019-03-31T10:51:03.316Z,19.9
2019-03-31T10:52:03.195Z,19.8
2019-03-31T10:53:02.858Z,19.5
2019-03-31T10:54:04.927Z,19.2
2019-03-31T10:55:02.960Z,18.8
2019-03-31T10:56:03.668Z,18.9
2019-03-31T10:57:02.948Z,18.5
2019-03-31T10:58:02.990Z,18.4
2019-03-31T10:59:02.812Z,18.7
2019-03-31T11:00:03.567Z,18.6
2019-03-31T11:01:04.036Z,18.9
2019-03-31T11:02:03.650Z,18.8
2019-03-31T11:03:03.591Z,18.9
2019-03-31T11:04:03.769Z,19.3
2019-03-31T11:05:03.623Z,19.4
2019-03-31T11:06:03.263Z,19.3
2019-03-31T11:07:03.961Z,19.6
2019-03-31T11:08:03.330Z,19.7
2019-03-31T11:09:03.625Z,19.8
2019-03-31T11:10:03.362Z,19.3
2019-03-31T11:11:03.051Z,18.8
2019-03-31T11:12:03.383Z,18.2
2019-03-31T11:13:03.262Z,18.2
2019-03-31T11:14:03.337Z,18.6
2019-03-31T11:15:03.320Z,18.3
2019-03-31T11:16:03.369Z,18.8
2019-03-31T11:17:03.193Z,19.2
2019-03-31T11:18:03.329Z,19.3
2019-03-31T11:19:03.332Z,19.4
2019-03-31T11:20:03.218Z,19.4
2019-03-31T11:21:02.855Z,19.4
2019-03-31T11:22:03.213Z,19.2
2019-03-31T11:23:03.006Z,19.4
2019-03-31T11:24:04.077Z,19.3
2019-03-31T11:25:03.044Z,19.1
2019-03-31T11:26:03.751Z,18.6
2019-03-31T11:27:03.465Z,18.8
2019-03-31T11:28:03.532Z,19.1
2019-03-31T11:29:03.060Z,19.1
2019-03-31T11:30:03.548Z,19.4
2019-03-31T11:31:02.815Z,19.1
2019-03-31T11:32:03.344Z,19.1
2019-03-31T11:33:02.959Z,19.1
2019-03-31T11:34:03.392Z,18.8
2019-03-31T11:35:03.613Z,19.4
2019-03-31T11:36:03.607Z,19.8
2019-03-31T11:37:14.252Z,19.9
2019-03-31T11:38:03.426Z,19.8
2019-03-31T11:39:03.433Z,19.2
2019-03-31T11:40:03.688Z,19.1
2019-03-31T11:41:03.406Z,19.6
2019-03-31T11:42:03.650Z,19.8
2019-03-31T11:43:03.186Z,19.2
2019-03-31T11:44:03.288Z,18.7
2019-03-31T11:45:03.259Z,18.4
2019-03-31T11:46:03.646Z,18.4
2019-03-31T11:47:02.978Z,18.5
2019-03-31T11:48:03.033Z,18.3
2019-03-31T11:49:02.849Z,18.2
2019-03-31T11:50:03.130Z,18
2019-03-31T11:51:02.850Z,17.9
2019-03-31T11:52:02.849Z,17.9
2019-03-31T11:53:03.056Z,18.1
2019-03-31T11:54:02.700Z,18
2019-03-31T11:55:02.875Z,18.4
2019-03-31T11:56:03.715Z,18.4
2019-03-31T11:57:03.678Z,18.8
2019-03-31T11:58:03.777Z,19.4
2019-03-31T11:59:02.954Z,19.8
2019-03-31T12:00:03.652Z,19.9
2019-03-31T12:01:02.878Z,19.6
2019-03-31T12:02:03.586Z,19.6
2019-03-31T12:03:03.606Z,19.2
2019-03-31T12:04:02.862Z,19.5
2019-03-31T12:05:06.458Z,19.6
2019-03-31T12:06:03.689Z,19.7
2019-03-31T12:07:03.464Z,20
2019-03-31T12:08:03.640Z,19.8
2019-03-31T12:09:03.397Z,19.6
2019-03-31T12:10:03.459Z,18.9
2019-03-31T12:11:03.436Z,18.7
2019-03-31T12:12:03.679Z,18.9
2019-03-31T12:13:03.310Z,19.3
2019-03-31T12:14:03.394Z,19.4
2019-03-31T12:15:03.377Z,19.2
2019-03-31T12:16:03.290Z,18.8
2019-03-31T12:17:03.645Z,18.9
2019-03-31T12:18:03.320Z,19.2
2019-03-31T12:19:03.292Z,18.6
2019-03-31T12:20:03.316Z,18.5
2019-03-31T12:21:03.392Z,18.9
2019-03-31T12:22:03.284Z,18.9
2019-03-31T12:23:03.133Z,19
2019-03-31T12:24:02.978Z,19.1
2019-03-31T12:25:02.889Z,19.5
2019-03-31T12:26:02.960Z,19.5
2019-03-31T12:27:02.660Z,19.3
2019-03-31T12:28:03.694Z,19.5
2019-03-31T12:29:03.732Z,19.6
2019-03-31T12:30:02.620Z,19.3
2019-03-31T12:31:03.721Z,19.4
2019-03-31T12:32:02.906Z,19.1
2019-03-31T12:33:03.573Z,19.3
2019-03-31T12:34:03.778Z,19.3
2019-03-31T12:35:03.648Z,19
2019-03-31T12:36:03.849Z,18.3
2019-03-31T12:37:03.859Z,18.3
2019-03-31T12:38:03.372Z,18.8
2019-03-31T12:39:03.260Z,18.8
2019-03-31T12:40:03.510Z,18.9
2019-03-31T12:41:03.285Z,18.5
2019-03-31T12:42:03.623Z,18.3
2019-03-31T12:43:03.201Z,18.4
2019-03-31T12:44:03.205Z,18.8
2019-03-31T12:45:03.134Z,18.9
2019-03-31T12:46:03.121Z,19.4
2019-03-31T12:47:03.053Z,19.4
2019-03-31T12:48:03.083Z,19.2
2019-03-31T12:49:03.029Z,19.2
2019-03-31T12:50:02.990Z,18.9
2019-03-31T12:51:02.950Z,18.7
2019-03-31T12:52:03.145Z,18.5
2019-03-31T12:53:02.651Z,18.5
2019-03-31T12:54:02.809Z,18.6
2019-03-31T12:55:02.785Z,18.6
2019-03-31T12:56:02.804Z,18.6
2019-03-31T12:57:03.869Z,18.6
2019-03-31T12:58:03.612Z,18.5
2019-03-31T12:59:03.752Z,18.2
2019-03-31T13:00:03.704Z,18.6
2019-03-31T13:01:03.580Z,18.8
2019-03-31T13:02:03.421Z,18.7
2019-03-31T13:03:03.625Z,18.7
2019-03-31T13:04:03.589Z,18.3
2019-03-31T13:05:03.685Z,18.2
2019-03-31T13:06:03.385Z,17.4
2019-03-31T13:07:03.276Z,17.3
2019-03-31T13:08:03.194Z,17.4
2019-03-31T13:09:03.566Z,17.5
2019-03-31T13:10:03.292Z,17.4
2019-03-31T13:11:03.563Z,17.5
2019-03-31T13:12:03.393Z,17.6
2019-03-31T13:13:03.167Z,17.8
2019-03-31T13:14:03.001Z,17.8
2019-03-31T13:15:03.326Z,17.8
2019-03-31T13:16:03.072Z,17.8
2019-03-31T13:17:01.919Z,17.9
2019-03-31T13:18:02.924Z,18.1
2019-03-31T13:19:02.808Z,18.3
2019-03-31T13:20:02.793Z,18.3
2019-03-31T13:21:02.910Z,18.3
2019-03-31T13:22:02.868Z,18.2
2019-03-31T13:23:02.953Z,18
2019-03-31T13:24:03.156Z,18.1
2019-03-31T13:25:03.202Z,18.3
2019-03-31T13:26:02.788Z,18.5
2019-03-31T13:27:03.064Z,18.4
2019-03-31T13:28:06.226Z,18.4
2019-03-31T13:29:02.641Z,18.3
2019-03-31T13:30:02.951Z,18.1
2019-03-31T13:31:02.738Z,18.3
2019-03-31T13:32:03.731Z,18.3
2019-03-31T13:33:03.150Z,0
2019-03-31T13:34:03.422Z,0
2019-03-31T13:35:03.042Z,0
2019-03-31T13:36:03.003Z,0
2019-03-31T13:37:02.779Z,0
2019-03-31T13:38:10.672Z,0